Time;durP1;ratioP1;P1;durP2;ratioP2;P2;SDS_P1;SDS_P2;PMS_P1;PMS_P2;Temp;Humidity;BMP_temperature;BMP_pressure;BME280_temperature;BME280_humidity;BME280_pressure;Samples;Min_cycle;Max_cycle;Signal;HPM_P1;HPM_P2
2022/05/23 00:38:33;;;;;;;3.72;1.73;;;19.10;94.00;;;;;;5061379;28;20109;-67
2022/05/23 00:44:05;;;;;;;3.63;1.58;;;19.00;94.20;;;;;;5053663;28;20094;-62
2022/05/23 00:46:31;;;;;;;3.75;1.40;;;19.10;94.30;;;;;;5036274;28;20037;-62
2022/05/23 00:49:04;;;;;;;3.17;1.58;;;19.00;94.20;;;;;;5054332;28;20107;-62
2022/05/23 00:51:31;;;;;;;4.43;1.35;;;19.00;94.30;;;;;;5053698;28;20570;-62
2022/05/23 00:54:00;;;;;;;3.55;1.60;;;18.90;94.50;;;;;;5054013;28;20108;-63
2022/05/23 00:56:33;;;;;;;2.50;1.70;;;18.80;95.20;;;;;;5053351;28;20040;-62
2022/05/23 00:59:03;;;;;;;2.90;2.22;;;18.70;95.30;;;;;;5035960;28;20044;-61
2022/05/23 01:01:32;;;;;;;3.63;1.50;;;18.70;95.60;;;;;;5053718;28;20466;-62
2022/05/23 01:03:57;;;;;;;4.22;1.77;;;18.60;95.70;;;;;;5036066;28;20363;-62
2022/05/23 01:06:23;;;;;;;2.53;1.90;;;18.60;95.90;;;;;;5053708;28;20332;-63
2022/05/23 01:08:54;;;;;;;4.15;1.98;;;18.70;96.00;;;;;;5035589;28;20055;-62
2022/05/23 01:11:20;;;;;;;5.70;2.47;;;18.60;96.20;;;;;;5053328;28;20044;-62
2022/05/23 01:13:45;;;;;;;6.63;1.90;;;18.50;96.40;;;;;;5053763;28;20044;-62
2022/05/23 01:16:11;;;;;;;4.80;2.25;;;18.60;96.40;;;;;;5053228;28;20025;-62
2022/05/23 01:18:38;;;;;;;2.92;2.15;;;18.60;96.30;;;;;;5054014;28;20041;-62
2022/05/23 01:21:06;;;;;;;8.02;2.17;;;18.60;96.20;;;;;;5053631;28;20126;-62
2022/05/23 01:23:46;;;;;;;2.42;1.85;;;18.60;96.30;;;;;;5053770;28;20025;-62
2022/05/23 01:26:12;;;;;;;2.63;1.88;;;18.60;96.10;;;;;;5019104;28;20029;-62
2022/05/23 01:28:41;;;;;;;5.35;2.00;;;18.60;96.20;;;;;;5053198;28;20037;-63
2022/05/23 01:31:09;;;;;;;2.63;1.60;;;18.60;96.20;;;;;;5034942;28;20047;-64
2022/05/23 01:33:35;;;;;;;7.57;1.77;;;18.70;96.00;;;;;;5052779;28;20040;-62
2022/05/23 01:36:02;;;;;;;3.42;1.75;;;18.70;95.90;;;;;;5053362;28;20041;-63
2022/05/23 01:38:28;;;;;;;4.78;2.03;;;18.70;95.80;;;;;;5052405;28;20063;-63
2022/05/23 01:40:58;;;;;;;4.60;2.08;;;18.70;95.70;;;;;;5035469;28;20450;-62
2022/05/23 01:43:24;;;;;;;5.22;1.70;;;18.70;95.60;;;;;;5034809;28;20037;-63
2022/05/23 01:45:50;;;;;;;2.55;1.85;;;18.70;95.60;;;;;;5053291;28;20029;-63
2022/05/23 01:48:17;;;;;;;3.22;1.58;;;18.70;95.50;;;;;;5052717;28;20037;-62
2022/05/23 01:50:42;;;;;;;3.08;1.65;;;18.70;95.20;;;;;;5053167;28;20434;-63
2022/05/23 01:53:08;;;;;;;5.50;1.88;;;18.70;95.20;;;;;;5034826;28;20057;-64
2022/05/23 01:55:36;;;;;;;4.13;1.60;;;18.70;95.20;;;;;;5053363;28;20037;-62
2022/05/23 01:58:02;;;;;;;3.88;1.45;;;18.60;95.10;;;;;;5035253;28;20033;-62
2022/05/23 02:03:12;;;;;;;4.05;1.73;;;18.60;95.10;;;;;;5052324;28;20544;-64
2022/05/23 02:05:37;;;;;;;4.68;2.13;;;18.50;95.30;;;;;;5052870;28;20028;-63
2022/05/23 02:08:03;;;;;;;3.22;1.67;;;18.50;95.70;;;;;;5035045;28;20379;-62
2022/05/23 02:10:30;;;;;;;4.75;2.53;;;18.50;95.40;;;;;;5052269;28;20128;-64
2022/05/23 02:12:59;;;;;;;2.28;2.00;;;18.50;95.40;;;;;;5052916;28;20037;-63
2022/05/23 02:15:25;;;;;;;3.40;1.85;;;18.50;95.40;;;;;;5052157;28;20072;-62
2022/05/23 02:17:50;;;;;;;5.00;1.50;;;18.50;95.40;;;;;;5052765;28;20434;-62
2022/05/23 02:20:16;;;;;;;7.25;1.73;;;18.50;95.50;;;;;;5052070;28;20033;-63
2022/05/23 02:22:42;;;;;;;3.72;2.20;;;18.50;95.60;;;;;;5052870;28;20033;-63
2022/05/23 02:25:08;;;;;;;2.90;1.73;;;18.40;95.50;;;;;;5034648;28;20041;-74
2022/05/23 02:27:34;;;;;;;3.40;1.77;;;18.40;95.60;;;;;;5052711;28;20041;-62
2022/05/23 02:30:00;;;;;;;6.22;2.28;;;18.40;95.60;;;;;;5052536;28;20036;-62
2022/05/23 02:32:26;;;;;;;4.63;2.00;;;18.40;95.80;;;;;;5051788;28;20080;-62
2022/05/23 02:34:51;;;;;;;4.32;1.65;;;18.30;95.90;;;;;;5052249;28;20463;-62
2022/05/23 02:37:17;;;;;;;6.93;2.67;;;18.20;95.80;;;;;;5051681;28;20025;-62
2022/05/23 02:39:43;;;;;;;4.35;1.90;;;18.30;95.90;;;;;;5033628;28;20516;-63
2022/05/23 02:42:09;;;;;;;3.90;2.58;;;18.20;96.20;;;;;;5034360;28;20438;-61
2022/05/23 02:44:35;;;;;;;5.15;1.98;;;18.20;96.40;;;;;;5052183;28;20061;-63
2022/05/23 02:47:01;;;;;;;5.78;2.95;;;18.10;96.60;;;;;;5033268;28;20036;-62
2022/05/23 02:49:27;;;;;;;3.65;1.98;;;18.10;96.80;;;;;;5033841;28;20470;-62
2022/05/23 02:51:53;;;;;;;3.55;2.30;;;18.00;96.90;;;;;;5034197;28;20131;-62
2022/05/23 02:54:19;;;;;;;4.80;2.08;;;18.00;97.10;;;;;;5051419;28;20025;-62
2022/05/23 02:56:45;;;;;;;4.55;2.35;;;17.90;97.30;;;;;;5052143;28;20071;-62
2022/05/23 02:59:10;;;;;;;5.57;2.60;;;18.00;97.20;;;;;;5051712;28;20072;-70
2022/05/23 03:04:23;;;;;;;5.43;2.05;;;17.90;97.20;;;;;;5010503;28;20043;-62
2022/05/23 03:06:49;;;;;;;10.18;2.65;;;17.80;97.20;;;;;;5051792;28;20033;-62
2022/05/23 03:09:14;;;;;;;4.32;2.20;;;17.80;97.30;;;;;;5050704;28;20040;-62
2022/05/23 03:11:40;;;;;;;5.38;2.90;;;17.90;97.40;;;;;;5033821;28;20132;-62
2022/05/23 03:14:05;;;;;;;7.70;3.30;;;17.80;97.60;;;;;;5051391;28;20029;-62
2022/05/23 03:16:31;;;;;;;9.00;2.85;;;17.80;97.60;;;;;;5050740;28;20159;-62
2022/05/23 03:18:57;;;;;;;4.90;3.10;;;17.80;97.60;;;;;;5033761;28;20037;-61
2022/05/23 03:27:00;;;;;;;10.40;2.90;;;17.80;98.00;;;;;;5051639;28;20108;-65
2022/05/23 03:29:27;;;;;;;4.20;2.20;;;17.90;98.00;;;;;;5050823;28;20048;-66
2022/05/23 03:31:53;;;;;;;5.18;2.85;;;17.80;98.10;;;;;;5051196;28;20025;-64
2022/05/23 03:34:19;;;;;;;6.47;2.83;;;18.00;97.70;;;;;;5032806;28;20534;-61
2022/05/23 03:36:44;;;;;;;4.07;2.20;;;17.90;97.90;;;;;;5051093;28;20056;-62
2022/05/23 03:39:10;;;;;;;3.88;2.88;;;17.90;97.80;;;;;;5032904;28;20090;-62
2022/05/23 03:41:36;;;;;;;3.97;2.60;;;17.90;97.50;;;;;;5050674;28;20045;-62
2022/05/23 03:44:02;;;;;;;4.22;2.58;;;17.80;97.50;;;;;;5033331;28;20397;-61
2022/05/23 03:46:28;;;;;;;5.15;3.10;;;17.80;97.60;;;;;;5032636;28;20033;-62
2022/05/23 03:48:54;;;;;;;6.07;3.08;;;17.80;97.40;;;;;;5051311;28;20037;-64
2022/05/23 03:51:20;;;;;;;6.38;3.13;;;18.30;99.90;;;;;;5050481;28;20067;-64
2022/05/23 03:53:46;;;;;;;5.03;1.70;;;18.50;98.60;;;;;;5050716;28;20033;-56
2022/05/23 03:56:11;;;;;;;4.65;1.75;;;18.90;99.90;;;;;;5032668;28;20032;-56
2022/05/23 03:58:37;;;;;;;7.65;2.50;;;19.70;99.90;;;;;;5049867;28;20458;-57
2022/05/23 04:01:12;;;;;;;8.77;1.80;;;20.00;98.90;;;;;;5050678;28;20048;-56
2022/05/23 04:03:38;;;;;;;5.53;1.85;;;20.10;98.40;;;;;;5049872;28;20041;-55
2022/05/23 04:06:04;;;;;;;3.85;1.70;;;20.30;97.80;;;;;;5050575;28;20036;-57
2022/05/23 04:08:30;;;;;;;6.38;2.65;;;20.60;98.00;;;;;;5049897;28;20462;-57
2022/05/23 04:10:56;;;;;;;4.47;1.90;;;20.60;97.60;;;;;;5050535;28;20102;-57
2022/05/23 04:13:22;;;;;;;5.60;1.88;;;20.80;97.40;;;;;;5049693;28;20072;-57
2022/05/23 04:15:47;;;;;;;4.97;2.60;;;20.70;97.00;;;;;;5050606;28;20037;-62
2022/05/23 04:18:13;;;;;;;5.95;2.28;;;20.60;94.90;;;;;;5050894;28;20025;-61
2022/05/23 04:20:39;;;;;;;8.98;2.97;;;19.80;94.40;;;;;;5050185;28;20045;-62
2022/05/23 04:23:08;;;;;;;4.45;2.33;;;19.30;95.00;;;;;;5050235;28;20037;-64
2022/05/23 04:25:37;;;;;;;5.47;2.85;;;19.20;97.70;;;;;;5049944;28;20025;-63
2022/05/23 04:28:03;;;;;;;7.03;2.72;;;19.60;95.80;;;;;;5050638;28;20033;-63
2022/05/23 04:30:29;;;;;;;6.80;2.42;;;18.90;96.00;;;;;;5032118;28;20044;-61
2022/05/23 04:35:39;;;;;;;4.95;3.28;;;18.70;96.50;;;;;;5050250;28;20044;-62
2022/05/23 04:38:04;;;;;;;3.75;2.10;;;18.60;96.50;;;;;;5050567;28;20033;-62
2022/05/23 04:40:30;;;;;;;4.43;2.88;;;18.60;97.00;;;;;;5031827;28;20524;-62
2022/05/23 04:42:56;;;;;;;3.78;2.45;;;18.40;97.10;;;;;;5050357;28;20075;-62
2022/05/23 04:45:22;;;;;;;4.57;2.47;;;18.20;97.20;;;;;;5049650;28;20124;-62
2022/05/23 04:50:33;;;;;;;4.90;2.97;;;18.30;97.20;;;;;;5050163;28;20040;-62
2022/05/23 04:52:59;;;;;;;8.45;2.90;;;18.30;96.90;;;;;;5050755;28;20033;-62
2022/05/23 04:55:25;;;;;;;6.28;2.75;;;18.20;97.00;;;;;;5050167;28;20032;-63
2022/05/23 04:57:52;;;;;;;5.38;2.72;;;18.10;97.10;;;;;;5039665;28;20029;-62
2022/05/23 05:00:20;;;;;;;7.55;3.17;;;18.10;97.30;;;;;;5049922;28;20033;-74
2022/05/23 05:02:47;;;;;;;4.80;3.17;;;18.00;97.10;;;;;;5049250;28;20037;-63
2022/05/23 05:05:14;;;;;;;3.35;2.55;;;18.00;97.20;;;;;;5055303;28;20120;-61
2022/05/23 05:07:39;;;;;;;6.32;3.00;;;17.90;96.90;;;;;;5037115;28;20065;-61
2022/05/23 05:10:06;;;;;;;13.70;3.03;;;17.80;97.00;;;;;;5052516;28;20087;-62
2022/05/23 05:12:32;;;;;;;5.63;3.00;;;18.00;98.80;;;;;;5034009;28;20446;-62
2022/05/23 05:14:58;;;;;;;10.93;2.95;;;18.30;97.60;;;;;;5026558;28;20040;-62
2022/05/23 05:17:24;;;;;;;5.20;3.00;;;18.60;97.20;;;;;;5034365;28;20080;-62
2022/05/23 05:19:50;;;;;;;5.13;2.72;;;18.40;96.60;;;;;;5034080;28;20048;-62
2022/05/23 05:22:16;;;;;;;6.78;3.20;;;18.40;96.50;;;;;;5028114;28;20045;-63
2022/05/23 05:24:42;;;;;;;5.78;2.60;;;18.60;95.90;;;;;;5034556;28;20037;-63
2022/05/23 05:27:09;;;;;;;9.68;3.17;;;18.60;96.30;;;;;;5051115;28;20038;-63
2022/05/23 05:29:35;;;;;;;8.93;3.20;;;18.50;96.20;;;;;;5034981;28;20098;-62
2022/05/23 05:32:11;;;;;;;7.53;3.38;;;18.20;96.30;;;;;;5035889;28;20120;-63
2022/05/23 05:34:48;;;;;;;7.50;3.58;;;18.50;96.80;;;;;;5051812;28;20132;-63
2022/05/23 05:37:19;;;;;;;5.40;2.95;;;18.50;96.70;;;;;;5035869;28;20166;-61
2022/05/23 05:39:47;;;;;;;7.85;2.90;;;18.60;96.50;;;;;;5053711;28;20053;-63
2022/05/23 05:44:58;;;;;;;7.57;2.83;;;18.30;97.50;;;;;;5345929;22;20058;-62
2022/05/23 05:47:24;;;;;;;7.35;3.10;;;18.10;97.50;;;;;;5010714;28;20045;-63
2022/05/23 05:49:58;;;;;;;8.10;2.75;;;18.10;98.70;;;;;;5013213;28;20034;-62
2022/05/23 05:52:27;;;;;;;7.47;3.88;;;18.10;99.00;;;;;;5013088;28;20030;-63
2022/05/23 05:54:53;;;;;;;7.70;3.15;;;17.80;99.90;;;;;;5013189;28;20081;-62
2022/05/23 05:57:20;;;;;;;7.03;3.17;;;18.00;99.90;;;;;;5013559;28;20061;-62
2022/05/23 05:59:46;;;;;;;6.38;3.45;;;18.20;99.90;;;;;;4992043;28;20077;-63
2022/05/23 06:02:12;;;;;;;7.45;2.70;;;18.40;99.90;;;;;;4978859;28;20574;-62
2022/05/23 06:04:37;;;;;;;10.70;3.40;;;18.40;99.90;;;;;;5012629;28;20033;-62
2022/05/23 06:12:32;;;;;;;5.65;3.25;;;18.60;99.90;;;;;;5029886;28;20538;-62
2022/05/23 06:14:58;;;;;;;4.95;3.67;;;18.30;99.90;;;;;;5027566;28;20073;-62
2022/05/23 06:17:24;;;;;;;5.15;3.00;;;18.20;99.90;;;;;;5013276;28;20080;-63
2022/05/23 06:19:49;;;;;;;4.47;2.75;;;17.90;99.90;;;;;;5032524;28;20125;-63
2022/05/23 06:22:16;;;;;;;5.57;2.90;;;18.50;99.90;;;;;;5027806;28;20042;-64
2022/05/23 06:24:44;;;;;;;5.72;3.03;;;19.10;99.90;;;;;;5022883;28;20643;-64
2022/05/23 06:27:11;;;;;;;5.53;3.00;;;19.40;99.90;;;;;;5032648;28;20034;-64
2022/05/23 06:29:38;;;;;;;4.35;3.45;;;19.60;99.90;;;;;;5032028;28;20435;-62
2022/05/23 06:32:05;;;;;;;8.52;3.42;;;19.70;99.90;;;;;;5014296;28;20045;-61
2022/05/23 06:34:31;;;;;;;9.57;3.58;;;18.50;99.90;;;;;;5031804;28;20034;-63
2022/05/23 06:36:57;;;;;;;11.32;3.53;;;18.10;99.90;;;;;;5032156;28;20037;-62
2022/05/23 06:39:23;;;;;;;4.18;3.60;;;17.90;99.90;;;;;;5032241;28;20479;-62
2022/05/23 06:41:49;;;;;;;6.40;3.20;;;18.00;99.90;;;;;;5032152;28;20223;-61
2022/05/23 06:44:15;;;;;;;6.95;3.47;;;18.00;99.90;;;;;;5020905;28;20077;-62
2022/05/23 06:46:41;;;;;;;3.92;2.80;;;18.10;99.90;;;;;;5031736;28;20029;-62
2022/05/23 06:49:07;;;;;;;4.95;3.35;;;18.00;99.90;;;;;;5022343;28;20038;-65
2022/05/23 06:51:34;;;;;;;4.00;2.90;;;18.00;99.90;;;;;;5011842;28;20030;-62
2022/05/23 06:54:00;;;;;;;7.93;3.47;;;18.10;99.90;;;;;;5032275;28;20033;-61
2022/05/23 06:56:28;;;;;;;8.55;3.72;;;17.90;99.90;;;;;;5013345;28;20341;-63
2022/05/23 06:58:55;;;;;;;5.43;3.13;;;18.00;99.90;;;;;;5016745;28;20038;-62
2022/05/23 07:01:21;;;;;;;9.25;3.20;;;18.20;99.90;;;;;;4997783;28;20045;-62
2022/05/23 07:03:46;;;;;;;7.25;3.10;;;18.80;99.90;;;;;;5030708;28;20364;-62
2022/05/23 07:14:27;;;;;;;7.47;2.72;;;20.50;99.90;;;;;;5021305;28;20048;-65
2022/05/23 07:16:54;;;;;;;6.45;2.63;;;21.00;99.90;;;;;;5018619;28;20049;-65
2022/05/23 07:19:19;;;;;;;8.60;2.90;;;21.50;99.90;;;;;;5011540;28;20511;-63
2022/05/23 07:21:45;;;;;;;8.65;2.92;;;21.70;99.90;;;;;;5010779;28;20129;-63
2022/05/23 07:24:11;;;;;;;7.88;2.53;;;22.00;98.60;;;;;;4993868;28;20029;-65
2022/05/23 07:26:37;;;;;;;13.48;2.42;;;22.00;99.00;;;;;;5022273;28;20107;-65
2022/05/23 07:29:04;;;;;;;6.35;2.30;;;22.40;98.70;;;;;;5013185;28;20398;-66
2022/05/23 07:31:30;;;;;;;12.23;2.55;;;22.40;97.40;;;;;;5029906;28;20029;-66
2022/05/23 07:33:56;;;;;;;5.82;2.30;;;22.60;97.50;;;;;;5031133;28;20490;-66
2022/05/23 07:36:22;;;;;;;3.78;2.67;;;22.70;97.40;;;;;;5015023;28;20038;-64
2022/05/23 07:38:47;;;;;;;5.55;2.10;;;22.90;96.80;;;;;;4992714;28;20041;-64
2022/05/23 07:41:13;;;;;;;7.63;2.15;;;22.90;96.60;;;;;;4993295;28;20120;-64
2022/05/23 07:43:41;;;;;;;5.32;2.15;;;22.90;96.20;;;;;;4992234;28;20219;-65
2022/05/23 07:46:13;;;;;;;10.73;2.63;;;22.90;96.00;;;;;;4993233;28;20041;-65
2022/05/23 07:48:41;;;;;;;5.05;2.40;;;22.90;96.40;;;;;;5009932;28;20034;-65
2022/05/23 07:51:10;;;;;;;6.57;2.30;;;22.90;95.50;;;;;;4993001;28;20193;-65
2022/05/23 08:01:49;;;;;;;5.57;2.53;;;23.40;95.60;;;;;;5010047;28;20146;-64
2022/05/23 08:04:16;;;;;;;5.57;1.85;;;23.50;95.30;;;;;;4992931;28;20411;-64
2022/05/23 08:06:42;;;;;;;10.02;2.10;;;23.60;95.10;;;;;;4992178;28;20042;-64
2022/05/23 08:09:09;;;;;;;4.40;2.50;;;23.70;95.00;;;;;;5010474;28;20552;-64
2022/05/23 08:11:40;;;;;;;4.45;2.55;;;23.50;94.00;;;;;;4995486;28;20038;-62
2022/05/23 08:14:06;;;;;;;5.93;2.55;;;23.60;94.20;;;;;;5007495;28;20124;-65
2022/05/23 08:16:33;;;;;;;5.57;2.50;;;23.80;94.10;;;;;;5007932;28;20041;-63
2022/05/23 08:18:59;;;;;;;4.15;2.63;;;24.20;93.80;;;;;;5025183;28;20042;-66
2022/05/23 08:21:25;;;;;;;12.18;3.00;;;23.90;93.10;;;;;;5024159;28;20045;-63
2022/05/23 08:23:51;;;;;;;6.88;2.75;;;23.50;93.80;;;;;;5025271;28;20030;-63
2022/05/23 08:26:17;;;;;;;3.83;2.30;;;23.70;93.80;;;;;;5025970;28;20182;-66
2022/05/23 08:28:42;;;;;;;8.68;2.60;;;24.30;93.60;;;;;;5023511;28;20131;-63
2022/05/23 08:31:08;;;;;;;3.92;2.05;;;24.60;92.90;;;;;;5026137;28;20053;-65
2022/05/23 08:33:34;;;;;;;5.25;2.20;;;24.80;93.00;;;;;;5023890;28;20497;-65
2022/05/23 08:36:00;;;;;;;5.80;2.17;;;24.70;92.40;;;;;;5025802;28;20038;-62
2022/05/23 08:38:25;;;;;;;4.75;2.53;;;24.50;92.70;;;;;;5025493;28;20095;-64
2022/05/23 08:41:13;;;;;;;9.50;3.15;;;24.00;93.10;;;;;;5023698;28;20064;-67
2022/05/23 08:43:48;;;;;;;11.93;2.38;;;24.40;93.50;;;;;;5006634;28;20042;-63
2022/05/23 08:46:26;;;;;;;6.32;1.75;;;24.30;92.70;;;;;;5028577;28;20438;-63
2022/05/23 08:49:06;;;;;;;4.15;1.90;;;24.10;93.30;;;;;;5014151;28;20033;-67
2022/05/23 08:52:10;;;;;;;4.88;1.83;;;24.70;92.90;;;;;;5015019;28;20489;-64
2022/05/23 08:55:04;;;;;;;4.57;2.15;;;24.60;92.60;;;;;;5033330;28;20029;-63
2022/05/23 08:57:29;;;;;;;5.32;2.42;;;23.70;93.50;;;;;;5034168;28;20045;-64
2022/05/23 08:59:59;;;;;;;5.30;2.05;;;24.10;93.50;;;;;;5033706;28;20049;-63
2022/05/23 09:02:42;;;;;;;7.43;2.33;;;24.00;93.20;;;;;;5016490;28;20057;-62
2022/05/23 09:05:13;;;;;;;6.35;1.98;;;24.30;93.50;;;;;;5033950;28;20053;-61
2022/05/23 09:07:44;;;;;;;8.43;2.25;;;24.10;93.30;;;;;;5033271;28;20425;-62
2022/05/23 09:10:30;;;;;;;2.42;1.83;;;24.10;93.40;;;;;;5033844;28;20088;-62
2022/05/23 09:12:56;;;;;;;4.90;2.20;;;24.50;93.20;;;;;;5032948;28;20045;-62
2022/05/23 09:15:23;;;;;;;6.65;2.22;;;24.50;93.20;;;;;;5015828;28;20033;-62
2022/05/23 09:18:01;;;;;;;4.18;1.67;;;25.00;92.70;;;;;;5034004;28;20038;-63
2022/05/23 09:20:42;;;;;;;2.75;1.80;;;25.30;92.50;;;;;;5033911;28;20068;-63
2022/05/23 09:23:44;;;;;;;5.10;1.52;;;24.60;92.60;;;;;;5033364;28;20552;-63
2022/05/23 09:26:26;;;;;;;6.07;2.08;;;24.90;92.70;;;;;;5033866;28;20500;-62
2022/05/23 09:28:52;;;;;;;3.38;2.20;;;24.80;92.60;;;;;;5032716;28;20251;-62
2022/05/23 09:31:34;;;;;;;3.35;1.83;;;25.20;92.70;;;;;;5032919;28;20044;-63
2022/05/23 09:34:00;;;;;;;2.97;1.55;;;25.20;92.50;;;;;;5033650;28;20030;-63
2022/05/23 09:36:37;;;;;;;3.75;2.13;;;25.00;92.90;;;;;;5015467;28;20379;-63
2022/05/23 09:39:07;;;;;;;2.92;1.80;;;25.40;92.30;;;;;;5033164;28;20108;-62
2022/05/23 09:50:07;;;;;;;3.53;2.00;;;26.20;91.20;;;;;;5032829;28;20095;-62
2022/05/23 09:52:39;;;;;;;17.98;2.50;;;26.70;91.30;;;;;;5032373;28;20083;-62
2022/05/23 09:55:07;;;;;;;6.97;2.30;;;27.10;91.10;;;;;;5032624;28;20033;-62
2022/05/23 09:57:40;;;;;;;4.35;1.60;;;27.60;91.00;;;;;;5032713;28;20033;-62
2022/05/23 10:00:26;;;;;;;5.63;2.25;;;27.50;90.20;;;;;;5014987;28;20037;-63
2022/05/23 10:03:05;;;;;;;6.68;2.38;;;27.20;90.60;;;;;;5032071;28;20491;-63
2022/05/23 10:05:36;;;;;;;4.85;2.30;;;27.50;90.50;;;;;;5015156;28;20045;-66
2022/05/23 10:08:08;;;;;;;;;;;27.80;90.20;;;;;;5015199;28;20061;-63
2022/05/23 10:10:36;;;;;;;5.53;1.60;;;27.80;89.40;;;;;;5032612;28;19909;-63
2022/05/23 10:13:19;;;;;;;5.35;1.80;;;27.40;90.40;;;;;;5032444;28;20038;-63
2022/05/23 10:15:53;;;;;;;5.93;2.08;;;27.20;90.60;;;;;;5032286;28;20042;-62
2022/05/23 10:18:29;;;;;;;4.40;1.58;;;27.30;90.30;;;;;;5032673;28;20040;-63
2022/05/23 10:20:55;;;;;;;3.13;1.60;;;27.30;90.30;;;;;;5014264;28;20049;-62
2022/05/23 10:23:28;;;;;;;3.65;1.90;;;27.30;90.40;;;;;;5032432;28;20378;-63
2022/05/23 10:26:02;;;;;;;4.22;2.28;;;27.10;90.30;;;;;;5031803;28;20034;-62
2022/05/23 10:28:36;;;;;;;6.18;2.08;;;27.00;90.60;;;;;;5014509;28;20044;-62
2022/05/23 10:31:10;;;;;;;3.88;1.90;;;27.30;90.60;;;;;;5032131;28;20040;-63
2022/05/23 10:33:38;;;;;;;6.63;2.22;;;27.10;90.90;;;;;;5032158;28;20025;-62
2022/05/23 10:36:10;;;;;;;5.20;1.98;;;27.00;90.40;;;;;;5014223;28;20061;-66
2022/05/23 10:42:07;;;;;;;5.97;1.75;;;26.70;91.00;;;;;;5031866;28;20125;-63
2022/05/23 10:44:57;;;;;;;6.15;1.83;;;26.60;90.70;;;;;;5031684;28;20054;-63
2022/05/23 10:47:39;;;;;;;4.28;1.63;;;25.80;91.60;;;;;;5031927;28;20490;-62
2022/05/23 10:50:19;;;;;;;4.32;1.80;;;26.20;91.90;;;;;;5031721;28;20466;-62
2022/05/23 10:53:09;;;;;;;2.63;2.00;;;26.10;91.70;;;;;;5030864;28;20124;-63
2022/05/23 10:56:09;;;;;;;5.18;2.05;;;26.00;92.20;;;;;;5031581;28;20091;-62
2022/05/23 10:58:50;;;;;;;3.17;1.95;;;26.70;91.20;;;;;;5031932;28;20044;-62
2022/05/23 11:01:54;;;;;;;3.20;1.63;;;26.80;91.00;;;;;;5013603;28;20099;-62
2022/05/23 11:04:27;;;;;;;5.32;1.95;;;26.70;91.30;;;;;;5010350;28;20138;-61
2022/05/23 11:06:58;;;;;;;7.75;2.05;;;27.10;90.80;;;;;;5030398;28;20045;-64
2022/05/23 11:09:36;;;;;;;2.88;1.38;;;26.80;91.20;;;;;;5026271;28;20034;-61
2022/05/23 11:12:13;;;;;;;2.70;1.83;;;27.00;91.10;;;;;;5028094;28;20071;-61
2022/05/23 11:14:45;;;;;;;6.88;2.63;;;27.20;91.60;;;;;;5029628;28;20457;-61
2022/05/23 11:17:26;;;;;;;4.60;2.00;;;26.80;91.60;;;;;;5030404;28;20554;-61
2022/05/23 11:20:16;;;;;;;2.70;1.83;;;26.90;91.00;;;;;;5028374;28;20045;-62
2022/05/23 11:22:58;;;;;;;3.50;1.48;;;26.70;91.30;;;;;;5030488;28;20080;-59
2022/05/23 11:25:35;;;;;;;4.57;1.83;;;26.40;91.30;;;;;;5013441;28;20045;-61
2022/05/23 11:34:11;;;;;;;3.83;1.95;;;25.50;92.70;;;;;;5023405;28;20103;-61
2022/05/23 11:36:56;;;;;;;3.30;1.63;;;25.50;92.60;;;;;;5007872;28;20356;-61
2022/05/23 11:39:46;;;;;;;5.07;2.33;;;25.40;93.20;;;;;;5026570;28;20380;-61
2022/05/23 11:42:28;;;;;;;3.60;2.00;;;25.50;93.30;;;;;;5023589;28;20403;-62
2022/05/23 11:44:59;;;;;;;10.38;2.33;;;25.60;93.10;;;;;;5023915;28;20171;-61
2022/05/23 11:47:26;;;;;;;4.95;1.98;;;25.70;93.10;;;;;;5009887;28;20045;-61
2022/05/23 11:49:58;;;;;;;4.05;1.33;;;25.80;92.80;;;;;;5031755;28;20049;-62
2022/05/23 11:52:43;;;;;;;3.45;1.92;;;25.20;93.30;;;;;;5036610;28;20347;-61
2022/05/23 11:55:11;;;;;;;4.05;1.75;;;25.40;93.40;;;;;;5036101;28;20084;-61
2022/05/23 11:57:40;;;;;;;4.68;2.35;;;25.40;93.50;;;;;;5034885;28;20094;-63
2022/05/23 12:00:27;;;;;;;3.80;1.98;;;25.50;93.40;;;;;;5036959;28;20479;-61
2022/05/23 12:03:07;;;;;;;4.40;1.88;;;25.40;93.70;;;;;;5036549;28;20077;-62
2022/05/23 12:05:33;;;;;;;4.17;2.37;;;25.50;93.70;;;;;;5037892;28;20032;-61
2022/05/23 12:08:03;;;;;;;7.40;2.10;;;25.50;93.70;;;;;;5037988;28;20038;-63
2022/05/23 12:10:36;;;;;;;5.90;1.95;;;25.40;93.80;;;;;;5037355;28;20034;-62
2022/05/23 12:13:14;;;;;;;6.18;2.25;;;25.50;94.00;;;;;;5034532;28;20056;-63
2022/05/23 12:16:02;;;;;;;9.15;2.67;;;25.50;93.90;;;;;;5028750;28;20046;-64
2022/05/23 12:18:35;;;;;;;4.82;1.98;;;25.40;94.00;;;;;;5020620;28;20052;-61
2022/05/23 12:21:36;;;;;;;6.63;2.53;;;25.50;93.80;;;;;;5031119;28;20033;-61
2022/05/23 12:24:24;;;;;;;7.70;2.40;;;25.60;93.50;;;;;;5019108;28;20818;-61
2022/05/23 12:26:53;;;;;;;9.18;2.22;;;25.70;93.40;;;;;;5039942;28;20033;-61
2022/05/23 12:29:34;;;;;;;4.88;2.83;;;25.80;93.40;;;;;;5022043;28;20048;-62
2022/05/23 12:32:08;;;;;;;6.18;2.80;;;25.80;93.60;;;;;;5018441;28;20029;-61
2022/05/23 12:34:39;;;;;;;5.03;1.95;;;26.00;93.90;;;;;;5035139;28;20041;-61
2022/05/23 12:37:05;;;;;;;8.38;2.30;;;25.90;93.70;;;;;;5034306;28;20037;-61
2022/05/23 12:39:30;;;;;;;5.32;1.98;;;25.90;93.50;;;;;;5034278;28;20394;-62
2022/05/23 12:42:26;;;;;;;4.30;2.17;;;25.60;93.60;;;;;;5016402;28;20171;-61
2022/05/23 12:45:10;;;;;;;3.28;2.03;;;25.60;93.40;;;;;;5034342;28;20047;-63
2022/05/23 12:47:51;;;;;;;4.45;2.25;;;25.50;93.50;;;;;;5018474;28;20103;-60
2022/05/23 12:50:55;;;;;;;6.00;2.25;;;25.60;93.60;;;;;;5034151;28;20052;-59
2022/05/23 12:54:10;;;;;;;6.18;2.05;;;25.40;93.60;;;;;;5034661;28;20030;-61
2022/05/23 12:57:09;;;;;;;4.28;2.40;;;25.30;93.90;;;;;;5034662;28;20033;-60
2022/05/23 12:59:35;;;;;;;2.80;2.13;;;25.20;94.20;;;;;;5033803;28;20125;-60
2022/05/23 13:02:06;;;;;;;3.58;2.10;;;25.20;94.30;;;;;;5033442;28;20108;-61
2022/05/23 13:04:47;;;;;;;8.52;2.72;;;25.10;94.50;;;;;;5033753;28;20042;-60
2022/05/23 13:07:21;;;;;;;4.65;2.40;;;24.90;94.90;;;;;;5033870;28;20348;-61
2022/05/23 13:09:56;;;;;;;3.95;2.50;;;24.60;95.50;;;;;;5015756;28;20069;-61
2022/05/23 13:12:35;;;;;;;9.88;2.85;;;24.60;95.90;;;;;;5016171;28;20146;-62
2022/05/23 13:15:01;;;;;;;3.95;2.50;;;24.40;95.90;;;;;;5033275;28;20433;-60
2022/05/23 13:17:34;;;;;;;12.88;3.30;;;24.40;96.30;;;;;;5033713;28;20089;-60
2022/05/23 13:22:44;;;;;;;5.40;2.70;;;24.40;96.70;;;;;;5033735;28;20048;-61
2022/05/23 13:25:10;;;;;;;8.35;2.92;;;24.60;96.60;;;;;;5032824;28;20030;-60
2022/05/23 13:27:44;;;;;;;6.30;3.17;;;24.70;96.60;;;;;;5034117;28;20030;-60
2022/05/23 13:30:31;;;;;;;7.18;2.85;;;24.70;96.70;;;;;;5014371;28;20045;-61
2022/05/23 13:33:17;;;;;;;9.52;3.60;;;24.70;96.80;;;;;;5033649;28;20033;-61
2022/05/23 13:35:47;;;;;;;8.32;2.67;;;24.70;96.80;;;;;;5034330;28;20025;-62
2022/05/23 13:38:22;;;;;;;4.82;2.92;;;24.80;96.90;;;;;;5033795;28;20032;-62
2022/05/23 13:40:51;;;;;;;6.85;3.08;;;24.70;97.10;;;;;;5015235;28;20072;-61
2022/05/23 13:43:33;;;;;;;3.38;2.80;;;24.70;97.20;;;;;;5015645;28;20048;-61
2022/05/23 13:46:08;;;;;;;4.57;2.60;;;24.60;97.50;;;;;;5014644;28;20037;-61
2022/05/23 13:48:45;;;;;;;5.43;3.17;;;24.50;97.60;;;;;;5033173;28;20034;-62
2022/05/23 13:51:16;;;;;;;5.07;2.55;;;24.60;97.60;;;;;;5015392;28;20041;-61
2022/05/23 13:53:56;;;;;;;6.63;2.78;;;24.80;97.50;;;;;;5033631;28;20125;-61
2022/05/23 13:56:22;;;;;;;7.07;2.80;;;24.90;97.30;;;;;;5032888;28;20447;-64
2022/05/23 13:58:56;;;;;;;7.35;3.40;;;25.00;97.40;;;;;;5032875;28;20457;-62
2022/05/23 14:01:47;;;;;;;9.07;2.90;;;25.00;97.40;;;;;;5015110;28;20041;-61
2022/05/23 14:04:17;;;;;;;7.05;3.38;;;25.00;97.70;;;;;;5014286;28;20491;-61
2022/05/23 14:06:52;;;;;;;8.23;2.80;;;25.00;97.60;;;;;;5015023;28;20538;-61
2022/05/23 14:09:19;;;;;;;3.55;2.60;;;25.10;97.50;;;;;;5014891;28;20073;-60
2022/05/23 14:11:54;;;;;;;8.98;2.70;;;25.20;97.60;;;;;;5033014;28;20029;-62
2022/05/23 14:14:22;;;;;;;7.07;3.75;;;25.00;97.60;;;;;;5033031;28;20041;-62
2022/05/23 14:16:59;;;;;;;3.90;2.88;;;24.90;97.70;;;;;;5032986;28;20112;-61
2022/05/23 14:19:42;;;;;;;5.75;2.58;;;25.00;97.70;;;;;;5032858;28;20034;-62
2022/05/23 14:22:10;;;;;;;13.30;3.22;;;25.10;97.60;;;;;;5014199;28;20041;-62
2022/05/23 14:24:48;;;;;;;7.32;3.13;;;25.00;97.70;;;;;;5014793;28;20033;-62
2022/05/23 14:27:18;;;;;;;8.07;3.67;;;25.20;97.30;;;;;;5032326;28;20491;-61
2022/05/23 14:29:46;;;;;;;7.97;3.25;;;25.30;97.40;;;;;;5032849;28;20033;-61
2022/05/23 14:32:25;;;;;;;3.97;2.97;;;25.20;97.50;;;;;;5031971;28;20029;-60
2022/05/23 14:34:51;;;;;;;5.65;3.03;;;25.40;97.40;;;;;;5031543;28;20120;-59
2022/05/23 14:37:21;;;;;;;7.78;2.78;;;25.50;97.20;;;;;;5032455;28;20112;-61
2022/05/23 14:39:51;;;;;;;5.13;2.70;;;25.40;97.30;;;;;;5032412;28;20034;-61
2022/05/23 14:42:27;;;;;;;10.00;3.33;;;25.20;97.70;;;;;;5014297;28;20037;-61
2022/05/23 14:45:14;;;;;;;10.57;3.33;;;25.20;97.80;;;;;;5013222;28;20052;-61
2022/05/23 14:47:54;;;;;;;6.63;3.50;;;25.20;97.70;;;;;;5014221;28;20430;-66